sensor_id;sensor_type;location;lat;lon;timestamp;pressure;altitude;pressure_sealevel;temperature;humidity
22104;BME280;11218;48.886;9.426;2022-12-18T00:00:06;99181.72;;;-6.10;84.58
22104;BME280;11218;48.886;9.426;2022-12-18T00:02:34;99182.69;;;-6.11;84.72
22104;BME280;11218;48.886;9.426;2022-12-18T00:05:04;99179.94;;;-6.09;84.97
22104;BME280;11218;48.886;9.426;2022-12-18T00:07:33;99183.03;;;-6.04;84.53
22104;BME280;11218;48.886;9.426;2022-12-18T00:10:01;99183.03;;;-6.04;84.69
22104;BME280;11218;48.886;9.426;2022-12-18T00:12:29;99184.56;;;-6.13;83.67
22104;BME280;11218;48.886;9.426;2022-12-18T00:14:58;99187.09;;;-6.11;84.46
22104;BME280;11218;48.886;9.426;2022-12-18T00:17:28;99190.75;;;-6.14;83.82
22104;BME280;11218;48.886;9.426;2022-12-18T00:19:56;99180.53;;;-6.17;83.68
22104;BME280;11218;48.886;9.426;2022-12-18T00:22:24;99186.97;;;-6.10;84.33
22104;BME280;11218;48.886;9.426;2022-12-18T00:24:52;99181.81;;;-6.22;82.81
22104;BME280;11218;48.886;9.426;2022-12-18T00:27:19;99176.94;;;-6.27;82.30
22104;BME280;11218;48.886;9.426;2022-12-18T00:29:48;99188.56;;;-6.31;82.47
22104;BME280;11218;48.886;9.426;2022-12-18T00:32:16;99190.25;;;-6.30;82.86
22104;BME280;11218;48.886;9.426;2022-12-18T00:34:45;99188.94;;;-6.36;82.34
22104;BME280;11218;48.886;9.426;2022-12-18T00:37:14;99192.44;;;-6.48;81.54
22104;BME280;11218;48.886;9.426;2022-12-18T00:39:48;99191.00;;;-6.52;81.88
22104;BME280;11218;48.886;9.426;2022-12-18T00:42:16;99181.81;;;-6.57;81.47
22104;BME280;11218;48.886;9.426;2022-12-18T00:45:02;99185.41;;;-6.58;82.55
22104;BME280;11218;48.886;9.426;2022-12-18T00:47:37;99183.44;;;-6.68;82.75
22104;BME280;11218;48.886;9.426;2022-12-18T00:50:08;99197.38;;;-6.67;83.83
22104;BME280;11218;48.886;9.426;2022-12-18T00:52:40;99187.28;;;-6.60;83.88
22104;BME280;11218;48.886;9.426;2022-12-18T00:55:09;99199.81;;;-6.53;83.94
22104;BME280;11218;48.886;9.426;2022-12-18T00:57:38;99190.91;;;-6.50;84.36
22104;BME280;11218;48.886;9.426;2022-12-18T01:00:11;99179.47;;;-6.49;83.71
22104;BME280;11218;48.886;9.426;2022-12-18T01:02:40;99173.53;;;-6.51;83.34
22104;BME280;11218;48.886;9.426;2022-12-18T01:05:11;99171.72;;;-6.51;83.74
22104;BME280;11218;48.886;9.426;2022-12-18T01:07:40;99182.94;;;-6.49;84.11
22104;BME280;11218;48.886;9.426;2022-12-18T01:10:10;99180.31;;;-6.49;84.37
22104;BME280;11218;48.886;9.426;2022-12-18T01:12:39;99186.16;;;-6.45;83.66
22104;BME280;11218;48.886;9.426;2022-12-18T01:15:09;99189.59;;;-6.45;84.18
22104;BME280;11218;48.886;9.426;2022-12-18T01:17:37;99181.97;;;-6.48;83.48
22104;BME280;11218;48.886;9.426;2022-12-18T01:20:05;99183.75;;;-6.48;83.44
22104;BME280;11218;48.886;9.426;2022-12-18T01:22:38;99191.63;;;-6.48;83.79
22104;BME280;11218;48.886;9.426;2022-12-18T01:25:06;99197.81;;;-6.49;83.86
22104;BME280;11218;48.886;9.426;2022-12-18T01:27:35;99196.03;;;-6.49;83.51
22104;BME280;11218;48.886;9.426;2022-12-18T01:30:04;99199.34;;;-6.47;83.31
22104;BME280;11218;48.886;9.426;2022-12-18T01:32:32;99204.31;;;-6.55;83.41
22104;BME280;11218;48.886;9.426;2022-12-18T01:35:01;99213.34;;;-6.59;83.12
22104;BME280;11218;48.886;9.426;2022-12-18T01:37:29;99220.81;;;-6.66;82.87
22104;BME280;11218;48.886;9.426;2022-12-18T01:39:59;99211.91;;;-6.63;83.59
22104;BME280;11218;48.886;9.426;2022-12-18T01:42:28;99201.91;;;-6.69;82.16
22104;BME280;11218;48.886;9.426;2022-12-18T01:45:02;99204.16;;;-6.76;82.03
22104;BME280;11218;48.886;9.426;2022-12-18T01:47:35;99204.03;;;-6.74;82.93
22104;BME280;11218;48.886;9.426;2022-12-18T01:50:07;99209.38;;;-6.76;82.81
22104;BME280;11218;48.886;9.426;2022-12-18T01:52:40;99195.78;;;-6.81;82.54
22104;BME280;11218;48.886;9.426;2022-12-18T01:55:12;99203.63;;;-6.81;82.60
22104;BME280;11218;48.886;9.426;2022-12-18T01:57:41;99195.19;;;-6.84;81.75
22104;BME280;11218;48.886;9.426;2022-12-18T02:00:11;99200.09;;;-6.80;82.15
22104;BME280;11218;48.886;9.426;2022-12-18T02:02:41;99207.31;;;-6.83;81.96
22104;BME280;11218;48.886;9.426;2022-12-18T02:05:11;99205.66;;;-6.84;81.92
22104;BME280;11218;48.886;9.426;2022-12-18T02:07:45;99207.66;;;-6.88;81.22
22104;BME280;11218;48.886;9.426;2022-12-18T02:10:22;99198.75;;;-6.85;81.77
22104;BME280;11218;48.886;9.426;2022-12-18T02:12:56;99188.72;;;-6.91;81.39
22104;BME280;11218;48.886;9.426;2022-12-18T02:15:31;99183.25;;;-6.88;82.26
22104;BME280;11218;48.886;9.426;2022-12-18T02:18:05;99193.13;;;-6.92;81.43
22104;BME280;11218;48.886;9.426;2022-12-18T02:20:39;99203.25;;;-6.87;82.10
22104;BME280;11218;48.886;9.426;2022-12-18T02:23:17;99207.66;;;-6.88;81.89
22104;BME280;11218;48.886;9.426;2022-12-18T02:26:07;99212.16;;;-6.90;81.75
22104;BME280;11218;48.886;9.426;2022-12-18T02:28:42;99218.34;;;-6.91;81.85
22104;BME280;11218;48.886;9.426;2022-12-18T02:31:16;99222.63;;;-6.90;82.46
22104;BME280;11218;48.886;9.426;2022-12-18T02:33:56;99222.50;;;-6.88;82.32
22104;BME280;11218;48.886;9.426;2022-12-18T02:36:27;99220.56;;;-6.98;81.75
22104;BME280;11218;48.886;9.426;2022-12-18T02:38:56;99204.97;;;-6.99;82.19
22104;BME280;11218;48.886;9.426;2022-12-18T02:41:28;99209.03;;;-6.95;82.19
22104;BME280;11218;48.886;9.426;2022-12-18T02:43:59;99209.25;;;-6.98;82.63
22104;BME280;11218;48.886;9.426;2022-12-18T02:46:33;99215.72;;;-6.91;83.10
22104;BME280;11218;48.886;9.426;2022-12-18T02:49:09;99219.91;;;-6.88;82.95
22104;BME280;11218;48.886;9.426;2022-12-18T02:51:49;99232.44;;;-6.81;83.00
22104;BME280;11218;48.886;9.426;2022-12-18T02:54:26;99225.19;;;-6.77;83.09
22104;BME280;11218;48.886;9.426;2022-12-18T02:57:04;99214.00;;;-6.79;82.68
22104;BME280;11218;48.886;9.426;2022-12-18T02:59:40;99224.28;;;-6.89;81.65
22104;BME280;11218;48.886;9.426;2022-12-18T03:02:17;99232.56;;;-6.95;81.42
22104;BME280;11218;48.886;9.426;2022-12-18T03:04:49;99232.41;;;-7.05;81.56
22104;BME280;11218;48.886;9.426;2022-12-18T03:07:27;99230.94;;;-7.09;81.60
22104;BME280;11218;48.886;9.426;2022-12-18T03:10:01;99240.78;;;-7.12;81.62
22104;BME280;11218;48.886;9.426;2022-12-18T03:12:35;99235.38;;;-7.22;79.78
22104;BME280;11218;48.886;9.426;2022-12-18T03:15:09;99236.81;;;-7.18;81.44
22104;BME280;11218;48.886;9.426;2022-12-18T03:17:46;99229.72;;;-7.16;82.61
22104;BME280;11218;48.886;9.426;2022-12-18T03:20:19;99235.66;;;-7.14;82.77
22104;BME280;11218;48.886;9.426;2022-12-18T03:22:51;99235.22;;;-7.08;82.88
22104;BME280;11218;48.886;9.426;2022-12-18T03:25:21;99239.09;;;-7.01;82.74
22104;BME280;11218;48.886;9.426;2022-12-18T03:27:54;99237.69;;;-6.93;83.41
22104;BME280;11218;48.886;9.426;2022-12-18T03:30:25;99240.22;;;-6.92;83.43
22104;BME280;11218;48.886;9.426;2022-12-18T03:32:58;99236.88;;;-6.94;82.76
22104;BME280;11218;48.886;9.426;2022-12-18T03:35:30;99241.16;;;-6.93;83.02
22104;BME280;11218;48.886;9.426;2022-12-18T03:37:59;99238.88;;;-6.98;82.98
22104;BME280;11218;48.886;9.426;2022-12-18T03:40:32;99246.00;;;-7.00;82.80
22104;BME280;11218;48.886;9.426;2022-12-18T03:43:08;99244.41;;;-7.02;83.13
22104;BME280;11218;48.886;9.426;2022-12-18T03:45:42;99253.63;;;-6.97;83.31
22104;BME280;11218;48.886;9.426;2022-12-18T03:48:16;99253.28;;;-6.92;83.36
22104;BME280;11218;48.886;9.426;2022-12-18T03:50:49;99259.03;;;-6.87;83.63
22104;BME280;11218;48.886;9.426;2022-12-18T03:53:25;99250.97;;;-6.84;82.81
22104;BME280;11218;48.886;9.426;2022-12-18T03:55:57;99246.06;;;-6.88;82.85
22104;BME280;11218;48.886;9.426;2022-12-18T03:58:29;99235.81;;;-6.91;82.50
22104;BME280;11218;48.886;9.426;2022-12-18T04:01:02;99234.97;;;-6.92;82.96
22104;BME280;11218;48.886;9.426;2022-12-18T04:03:32;99231.41;;;-6.91;83.03
22104;BME280;11218;48.886;9.426;2022-12-18T04:06:02;99236.31;;;-6.86;83.02
22104;BME280;11218;48.886;9.426;2022-12-18T04:08:31;99233.19;;;-6.91;82.76
22104;BME280;11218;48.886;9.426;2022-12-18T04:11:02;99231.53;;;-6.92;83.11
22104;BME280;11218;48.886;9.426;2022-12-18T04:13:35;99231.19;;;-6.88;83.18
22104;BME280;11218;48.886;9.426;2022-12-18T04:16:04;99241.78;;;-6.89;83.10
22104;BME280;11218;48.886;9.426;2022-12-18T04:18:33;99230.34;;;-6.88;83.31
22104;BME280;11218;48.886;9.426;2022-12-18T04:21:02;99232.69;;;-6.97;82.32
22104;BME280;11218;48.886;9.426;2022-12-18T04:23:30;99232.78;;;-6.98;82.52
22104;BME280;11218;48.886;9.426;2022-12-18T04:25:58;99236.47;;;-7.01;82.64
22104;BME280;11218;48.886;9.426;2022-12-18T04:28:26;99247.75;;;-7.00;83.01
22104;BME280;11218;48.886;9.426;2022-12-18T04:30:55;99246.50;;;-6.94;82.73
22104;BME280;11218;48.886;9.426;2022-12-18T04:33:23;99245.78;;;-6.97;82.35
22104;BME280;11218;48.886;9.426;2022-12-18T04:35:52;99247.13;;;-6.91;82.14
22104;BME280;11218;48.886;9.426;2022-12-18T04:38:20;99248.38;;;-6.97;82.34
22104;BME280;11218;48.886;9.426;2022-12-18T04:40:48;99244.31;;;-7.01;82.41
22104;BME280;11218;48.886;9.426;2022-12-18T04:43:16;99249.44;;;-6.99;82.99
22104;BME280;11218;48.886;9.426;2022-12-18T04:45:45;99260.94;;;-7.02;82.77
22104;BME280;11218;48.886;9.426;2022-12-18T04:48:14;99249.66;;;-7.02;82.71
22104;BME280;11218;48.886;9.426;2022-12-18T04:50:42;99257.28;;;-6.99;82.92
22104;BME280;11218;48.886;9.426;2022-12-18T04:53:10;99252.56;;;-6.94;82.62
22104;BME280;11218;48.886;9.426;2022-12-18T04:55:38;99252.56;;;-6.94;83.47
22104;BME280;11218;48.886;9.426;2022-12-18T04:58:07;99245.66;;;-6.95;82.88
22104;BME280;11218;48.886;9.426;2022-12-18T05:00:35;99252.50;;;-7.05;82.42
22104;BME280;11218;48.886;9.426;2022-12-18T05:03:02;99254.81;;;-7.13;83.12
22104;BME280;11218;48.886;9.426;2022-12-18T05:05:34;99247.69;;;-7.11;83.33
22104;BME280;11218;48.886;9.426;2022-12-18T05:08:02;99236.91;;;-7.07;83.28
22104;BME280;11218;48.886;9.426;2022-12-18T05:10:30;99254.28;;;-7.06;83.61
22104;BME280;11218;48.886;9.426;2022-12-18T05:13:03;99243.59;;;-7.03;83.69
22104;BME280;11218;48.886;9.426;2022-12-18T05:15:32;99248.59;;;-7.00;84.20
22104;BME280;11218;48.886;9.426;2022-12-18T05:18:01;99244.00;;;-6.96;84.26
22104;BME280;11218;48.886;9.426;2022-12-18T05:20:31;99244.59;;;-6.92;84.87
22104;BME280;11218;48.886;9.426;2022-12-18T05:23:00;99244.50;;;-6.91;85.63
22104;BME280;11218;48.886;9.426;2022-12-18T05:25:28;99241.66;;;-6.88;85.81
22104;BME280;11218;48.886;9.426;2022-12-18T05:27:56;99244.34;;;-6.77;85.00
22104;BME280;11218;48.886;9.426;2022-12-18T05:30:25;99247.41;;;-6.83;85.23
22104;BME280;11218;48.886;9.426;2022-12-18T05:32:54;99231.97;;;-6.75;85.36
22104;BME280;11218;48.886;9.426;2022-12-18T05:35:24;99241.50;;;-6.74;86.35
22104;BME280;11218;48.886;9.426;2022-12-18T05:37:54;99234.84;;;-6.67;86.22
22104;BME280;11218;48.886;9.426;2022-12-18T05:40:22;99239.38;;;-6.69;86.23
22104;BME280;11218;48.886;9.426;2022-12-18T05:42:50;99236.88;;;-6.70;87.12
22104;BME280;11218;48.886;9.426;2022-12-18T05:45:18;99254.84;;;-6.66;87.26
22104;BME280;11218;48.886;9.426;2022-12-18T05:47:46;99249.28;;;-6.61;86.78
22104;BME280;11218;48.886;9.426;2022-12-18T05:50:15;99239.84;;;-6.64;86.53
22104;BME280;11218;48.886;9.426;2022-12-18T05:52:43;99246.75;;;-6.63;87.09
22104;BME280;11218;48.886;9.426;2022-12-18T05:55:12;99249.59;;;-6.66;87.02
22104;BME280;11218;48.886;9.426;2022-12-18T05:57:40;99257.97;;;-6.60;87.00
22104;BME280;11218;48.886;9.426;2022-12-18T06:00:10;99268.22;;;-6.57;87.21
22104;BME280;11218;48.886;9.426;2022-12-18T06:02:38;99264.53;;;-6.55;87.05
22104;BME280;11218;48.886;9.426;2022-12-18T06:05:07;99264.09;;;-6.49;87.15
22104;BME280;11218;48.886;9.426;2022-12-18T06:07:35;99260.53;;;-6.48;87.13
22104;BME280;11218;48.886;9.426;2022-12-18T06:10:03;99251.22;;;-6.52;86.86
22104;BME280;11218;48.886;9.426;2022-12-18T06:12:33;99251.22;;;-6.52;86.88
22104;BME280;11218;48.886;9.426;2022-12-18T06:15:01;99247.88;;;-6.54;86.95
22104;BME280;11218;48.886;9.426;2022-12-18T06:17:29;99254.91;;;-6.54;87.31
22104;BME280;11218;48.886;9.426;2022-12-18T06:20:00;99271.44;;;-6.54;87.30
22104;BME280;11218;48.886;9.426;2022-12-18T06:22:30;99261.59;;;-6.50;87.51
22104;BME280;11218;48.886;9.426;2022-12-18T06:24:59;99272.06;;;-6.50;87.34
22104;BME280;11218;48.886;9.426;2022-12-18T06:27:27;99262.31;;;-6.48;87.02
22104;BME280;11218;48.886;9.426;2022-12-18T06:29:56;99261.34;;;-6.47;87.39
22104;BME280;11218;48.886;9.426;2022-12-18T06:32:24;99260.84;;;-6.52;87.57
22104;BME280;11218;48.886;9.426;2022-12-18T06:34:52;99270.16;;;-6.48;87.74
22104;BME280;11218;48.886;9.426;2022-12-18T06:37:22;99269.09;;;-6.46;87.71
22104;BME280;11218;48.886;9.426;2022-12-18T06:39:52;99263.03;;;-6.46;88.15
22104;BME280;11218;48.886;9.426;2022-12-18T06:42:23;99258.19;;;-6.40;87.04
22104;BME280;11218;48.886;9.426;2022-12-18T06:44:51;99262.69;;;-6.42;87.19
22104;BME280;11218;48.886;9.426;2022-12-18T06:47:21;99257.44;;;-6.42;87.98
22104;BME280;11218;48.886;9.426;2022-12-18T06:49:49;99269.16;;;-6.35;87.08
22104;BME280;11218;48.886;9.426;2022-12-18T06:52:17;99270.22;;;-6.37;87.68
22104;BME280;11218;48.886;9.426;2022-12-18T06:54:47;99260.47;;;-6.35;87.87
22104;BME280;11218;48.886;9.426;2022-12-18T06:57:15;99266.09;;;-6.28;87.07
22104;BME280;11218;48.886;9.426;2022-12-18T06:59:43;99272.50;;;-6.33;87.43
22104;BME280;11218;48.886;9.426;2022-12-18T07:02:12;99273.00;;;-6.27;87.62
22104;BME280;11218;48.886;9.426;2022-12-18T07:04:42;99287.41;;;-6.22;87.05
22104;BME280;11218;48.886;9.426;2022-12-18T07:07:10;99295.38;;;-6.23;87.74
22104;BME280;11218;48.886;9.426;2022-12-18T07:09:38;99288.69;;;-6.27;87.12
22104;BME280;11218;48.886;9.426;2022-12-18T07:12:06;99287.88;;;-6.28;87.86
22104;BME280;11218;48.886;9.426;2022-12-18T07:14:34;99287.88;;;-6.28;87.68
22104;BME280;11218;48.886;9.426;2022-12-18T07:17:02;99295.72;;;-6.28;87.83
22104;BME280;11218;48.886;9.426;2022-12-18T07:19:32;99297.50;;;-6.28;87.65
22104;BME280;11218;48.886;9.426;2022-12-18T07:22:01;99298.00;;;-6.23;88.05
22104;BME280;11218;48.886;9.426;2022-12-18T07:24:30;99303.84;;;-6.20;87.03
22104;BME280;11218;48.886;9.426;2022-12-18T07:26:58;99302.41;;;-6.24;86.72
22104;BME280;11218;48.886;9.426;2022-12-18T07:29:26;99302.41;;;-6.24;87.17
22104;BME280;11218;48.886;9.426;2022-12-18T07:31:54;99304.19;;;-6.24;87.42
22104;BME280;11218;48.886;9.426;2022-12-18T07:34:22;99310.88;;;-6.20;87.15
22104;BME280;11218;48.886;9.426;2022-12-18T07:36:50;99310.88;;;-6.20;87.06
22104;BME280;11218;48.886;9.426;2022-12-18T07:39:20;99318.75;;;-6.20;87.48
22104;BME280;11218;48.886;9.426;2022-12-18T07:41:48;99314.22;;;-6.18;87.59
22104;BME280;11218;48.886;9.426;2022-12-18T07:44:36;99326.25;;;-6.16;87.83
22104;BME280;11218;48.886;9.426;2022-12-18T07:47:05;99323.41;;;-6.13;87.38
22104;BME280;11218;48.886;9.426;2022-12-18T07:49:38;99313.78;;;-6.12;87.41
22104;BME280;11218;48.886;9.426;2022-12-18T07:52:06;99319.00;;;-6.12;87.75
22104;BME280;11218;48.886;9.426;2022-12-18T07:54:36;99319.75;;;-6.10;87.06
22104;BME280;11218;48.886;9.426;2022-12-18T07:57:04;99319.66;;;-5.98;86.98
22104;BME280;11218;48.886;9.426;2022-12-18T07:59:52;99322.28;;;-5.98;87.00
22104;BME280;11218;48.886;9.426;2022-12-18T08:02:24;99322.28;;;-5.98;87.64
22104;BME280;11218;48.886;9.426;2022-12-18T08:04:52;99330.88;;;-5.95;87.90
22104;BME280;11218;48.886;9.426;2022-12-18T08:07:20;99331.56;;;-5.93;87.92
22104;BME280;11218;48.886;9.426;2022-12-18T08:09:49;99325.72;;;-5.86;87.27
22104;BME280;11218;48.886;9.426;2022-12-18T08:12:18;99333.47;;;-5.84;87.78
22104;BME280;11218;48.886;9.426;2022-12-18T08:14:45;99331.34;;;-5.79;87.55
22104;BME280;11218;48.886;9.426;2022-12-18T08:17:13;99325.03;;;-5.77;87.53
22104;BME280;11218;48.886;9.426;2022-12-18T08:19:41;99324.09;;;-5.76;87.66
22104;BME280;11218;48.886;9.426;2022-12-18T08:22:10;99327.09;;;-5.69;87.75
22104;BME280;11218;48.886;9.426;2022-12-18T08:24:37;99331.88;;;-5.63;87.24
22104;BME280;11218;48.886;9.426;2022-12-18T08:27:07;99326.41;;;-5.60;87.40
22104;BME280;11218;48.886;9.426;2022-12-18T08:29:55;99320.09;;;-5.57;86.66
22104;BME280;11218;48.886;9.426;2022-12-18T08:32:24;99327.59;;;-5.53;87.39
22104;BME280;11218;48.886;9.426;2022-12-18T08:34:53;99331.44;;;-5.46;86.78
22104;BME280;11218;48.886;9.426;2022-12-18T08:37:21;99333.81;;;-5.43;86.74
22104;BME280;11218;48.886;9.426;2022-12-18T08:39:50;99329.19;;;-5.39;87.00
22104;BME280;11218;48.886;9.426;2022-12-18T08:42:19;99333.13;;;-5.34;86.52
22104;BME280;11218;48.886;9.426;2022-12-18T08:45:05;99328.47;;;-5.30;87.15
22104;BME280;11218;48.886;9.426;2022-12-18T08:47:33;99325.16;;;-5.21;87.13
22104;BME280;11218;48.886;9.426;2022-12-18T08:50:04;99330.38;;;-5.10;86.22
22104;BME280;11218;48.886;9.426;2022-12-18T08:52:32;99329.53;;;-5.10;86.32
22104;BME280;11218;48.886;9.426;2022-12-18T08:55:00;99324.88;;;-4.96;85.68
22104;BME280;11218;48.886;9.426;2022-12-18T08:57:30;99330.97;;;-4.95;85.34
22104;BME280;11218;48.886;9.426;2022-12-18T08:59:58;99331.09;;;-4.85;86.17
22104;BME280;11218;48.886;9.426;2022-12-18T09:02:27;99328.22;;;-4.82;86.04
22104;BME280;11218;48.886;9.426;2022-12-18T09:04:55;99322.72;;;-4.79;85.70
22104;BME280;11218;48.886;9.426;2022-12-18T09:07:23;99324.88;;;-4.73;86.29
22104;BME280;11218;48.886;9.426;2022-12-18T09:09:51;99312.94;;;-4.66;86.23
22104;BME280;11218;48.886;9.426;2022-12-18T09:12:19;99311.59;;;-4.60;85.83
22104;BME280;11218;48.886;9.426;2022-12-18T09:14:49;99303.38;;;-4.56;85.73
22104;BME280;11218;48.886;9.426;2022-12-18T09:17:16;99305.50;;;-4.50;85.24
22104;BME280;11218;48.886;9.426;2022-12-18T09:19:45;99306.66;;;-4.43;85.21
22104;BME280;11218;48.886;9.426;2022-12-18T09:22:13;99301.72;;;-4.36;85.25
22104;BME280;11218;48.886;9.426;2022-12-18T09:24:41;99307.06;;;-4.26;84.60
22104;BME280;11218;48.886;9.426;2022-12-18T09:27:09;99306.56;;;-4.20;84.42
22104;BME280;11218;48.886;9.426;2022-12-18T09:29:37;99299.63;;;-4.10;84.27
22104;BME280;11218;48.886;9.426;2022-12-18T09:32:07;99299.94;;;-4.04;84.07
22104;BME280;11218;48.886;9.426;2022-12-18T09:34:35;99293.94;;;-3.94;82.68
22104;BME280;11218;48.886;9.426;2022-12-18T09:37:03;99290.78;;;-3.88;84.03
22104;BME280;11218;48.886;9.426;2022-12-18T09:39:31;99289.31;;;-3.81;83.99
22104;BME280;11218;48.886;9.426;2022-12-18T09:41:59;99284.94;;;-3.71;83.88
22104;BME280;11218;48.886;9.426;2022-12-18T09:44:29;99279.59;;;-3.60;83.36
22104;BME280;11218;48.886;9.426;2022-12-18T09:47:15;99284.22;;;-3.52;83.08
22104;BME280;11218;48.886;9.426;2022-12-18T09:49:45;99275.81;;;-3.46;82.46
22104;BME280;11218;48.886;9.426;2022-12-18T09:52:18;99279.47;;;-3.38;81.93
22104;BME280;11218;48.886;9.426;2022-12-18T09:54:50;99278.69;;;-3.28;81.59
22104;BME280;11218;48.886;9.426;2022-12-18T09:57:22;99283.41;;;-3.22;82.24
22104;BME280;11218;48.886;9.426;2022-12-18T09:59:54;99276.25;;;-3.11;81.97
22104;BME280;11218;48.886;9.426;2022-12-18T10:02:25;99272.00;;;-3.02;81.29
22104;BME280;11218;48.886;9.426;2022-12-18T10:05:04;99266.75;;;-2.92;80.55
22104;BME280;11218;48.886;9.426;2022-12-18T10:07:43;99270.25;;;-2.82;80.98
22104;BME280;11218;48.886;9.426;2022-12-18T10:10:23;99271.09;;;-2.72;80.49
22104;BME280;11218;48.886;9.426;2022-12-18T10:13:02;99271.69;;;-2.59;80.28
22104;BME280;11218;48.886;9.426;2022-12-18T10:15:38;99274.19;;;-2.48;79.16
22104;BME280;11218;48.886;9.426;2022-12-18T10:18:25;99267.84;;;-2.36;79.83
22104;BME280;11218;48.886;9.426;2022-12-18T10:21:03;99263.69;;;-2.28;79.61
22104;BME280;11218;48.886;9.426;2022-12-18T10:23:41;99267.84;;;-2.26;78.52
22104;BME280;11218;48.886;9.426;2022-12-18T10:26:14;99267.53;;;-2.13;78.20
22104;BME280;11218;48.886;9.426;2022-12-18T10:28:44;99271.44;;;-1.98;77.59
22104;BME280;11218;48.886;9.426;2022-12-18T10:31:15;99275.19;;;-1.91;77.38
22104;BME280;11218;48.886;9.426;2022-12-18T10:33:45;99282.13;;;-1.80;77.26
22104;BME280;11218;48.886;9.426;2022-12-18T10:36:13;99278.09;;;-1.75;77.14
22104;BME280;11218;48.886;9.426;2022-12-18T10:38:42;99275.69;;;-1.58;76.71
22104;BME280;11218;48.886;9.426;2022-12-18T10:41:24;99271.19;;;-1.39;77.28
22104;BME280;11218;48.886;9.426;2022-12-18T10:44:17;99273.09;;;-1.31;75.80
22104;BME280;11218;48.886;9.426;2022-12-18T10:46:49;99278.78;;;-1.26;76.31
22104;BME280;11218;48.886;9.426;2022-12-18T10:49:23;99279.47;;;-1.24;75.52
22104;BME280;11218;48.886;9.426;2022-12-18T10:52:05;99290.44;;;-1.19;74.45
22104;BME280;11218;48.886;9.426;2022-12-18T10:54:35;99295.84;;;-1.11;75.90
22104;BME280;11218;48.886;9.426;2022-12-18T10:57:15;99284.56;;;-1.03;75.22
22104;BME280;11218;48.886;9.426;2022-12-18T10:59:50;99289.41;;;-0.98;75.12
22104;BME280;11218;48.886;9.426;2022-12-18T11:02:27;99297.31;;;-0.98;74.64
22104;BME280;11218;48.886;9.426;2022-12-18T11:04:57;99288.03;;;-1.03;74.49
22104;BME280;11218;48.886;9.426;2022-12-18T11:07:47;99274.91;;;-0.94;73.73
22104;BME280;11218;48.886;9.426;2022-12-18T11:10:18;99274.22;;;-0.96;73.92
22104;BME280;11218;48.886;9.426;2022-12-18T11:12:47;99270.19;;;-0.91;73.84
22104;BME280;11218;48.886;9.426;2022-12-18T11:15:16;99276.41;;;-0.82;73.25
22104;BME280;11218;48.886;9.426;2022-12-18T11:17:50;99259.94;;;-0.76;73.94
22104;BME280;11218;48.886;9.426;2022-12-18T11:20:27;99262.81;;;-0.70;74.10
22104;BME280;11218;48.886;9.426;2022-12-18T11:22:59;99262.22;;;-0.63;73.50
22104;BME280;11218;48.886;9.426;2022-12-18T11:25:30;99249.38;;;-0.58;73.33
22104;BME280;11218;48.886;9.426;2022-12-18T11:28:03;99244.19;;;-0.50;73.62
22104;BME280;11218;48.886;9.426;2022-12-18T11:30:33;99242.97;;;-0.56;72.80
22104;BME280;11218;48.886;9.426;2022-12-18T11:33:04;99237.78;;;-0.48;72.94
22104;BME280;11218;48.886;9.426;2022-12-18T11:35:55;99239.91;;;-0.34;73.08
22104;BME280;11218;48.886;9.426;2022-12-18T11:38:27;99225.25;;;-0.28;72.83
22104;BME280;11218;48.886;9.426;2022-12-18T11:41:00;99232.28;;;-0.19;71.57
22104;BME280;11218;48.886;9.426;2022-12-18T11:43:31;99237.09;;;-0.14;72.51
22104;BME280;11218;48.886;9.426;2022-12-18T11:46:04;99233.47;;;-0.13;72.22
22104;BME280;11218;48.886;9.426;2022-12-18T11:48:37;99234.97;;;-0.11;70.43
22104;BME280;11218;48.886;9.426;2022-12-18T11:51:17;99227.13;;;-0.20;71.37
22104;BME280;11218;48.886;9.426;2022-12-18T11:53:52;99215.94;;;-0.32;71.71
22104;BME280;11218;48.886;9.426;2022-12-18T11:56:29;99210.88;;;-0.43;71.54
22104;BME280;11218;48.886;9.426;2022-12-18T11:59:08;99212.69;;;-0.44;72.12
22104;BME280;11218;48.886;9.426;2022-12-18T12:01:48;99214.06;;;-0.40;73.36
22104;BME280;11218;48.886;9.426;2022-12-18T12:04:39;99220.69;;;-0.36;72.09
22104;BME280;11218;48.886;9.426;2022-12-18T12:07:22;99213.69;;;-0.27;72.70
22104;BME280;11218;48.886;9.426;2022-12-18T12:10:01;99221.16;;;-0.22;71.61
22104;BME280;11218;48.886;9.426;2022-12-18T12:12:38;99203.41;;;-0.30;71.92
22104;BME280;11218;48.886;9.426;2022-12-18T12:15:25;99192.75;;;-0.20;71.58
22104;BME280;11218;48.886;9.426;2022-12-18T12:18:00;99193.03;;;-0.23;71.64
22104;BME280;11218;48.886;9.426;2022-12-18T12:20:44;99188.97;;;-0.18;71.68
22104;BME280;11218;48.886;9.426;2022-12-18T12:23:22;99184.72;;;-0.28;72.49
22104;BME280;11218;48.886;9.426;2022-12-18T12:25:58;99189.56;;;-0.24;72.02
22104;BME280;11218;48.886;9.426;2022-12-18T12:28:46;99193.97;;;-0.32;71.15
22104;BME280;11218;48.886;9.426;2022-12-18T12:31:26;99193.81;;;-0.31;71.70
22104;BME280;11218;48.886;9.426;2022-12-18T12:34:01;99193.56;;;-0.38;72.22
22104;BME280;11218;48.886;9.426;2022-12-18T12:36:41;99195.78;;;-0.33;72.99
22104;BME280;11218;48.886;9.426;2022-12-18T12:39:21;99196.44;;;-0.31;73.17
22104;BME280;11218;48.886;9.426;2022-12-18T12:41:54;99191.22;;;-0.41;72.66
22104;BME280;11218;48.886;9.426;2022-12-18T12:44:51;99193.66;;;-0.29;72.81
22104;BME280;11218;48.886;9.426;2022-12-18T12:47:26;99204.06;;;-0.28;72.94
22104;BME280;11218;48.886;9.426;2022-12-18T12:49:57;99192.50;;;-0.27;73.15
22104;BME280;11218;48.886;9.426;2022-12-18T12:52:32;99205.06;;;-0.29;73.09
22104;BME280;11218;48.886;9.426;2022-12-18T12:55:07;99202.41;;;-0.29;72.27
22104;BME280;11218;48.886;9.426;2022-12-18T12:57:45;99206.50;;;-0.35;72.28
22104;BME280;11218;48.886;9.426;2022-12-18T13:00:18;99192.75;;;-0.38;72.41
22104;BME280;11218;48.886;9.426;2022-12-18T13:02:54;99198.34;;;-0.41;72.92
22104;BME280;11218;48.886;9.426;2022-12-18T13:05:30;99195.25;;;-0.37;72.66
22104;BME280;11218;48.886;9.426;2022-12-18T13:08:03;99202.50;;;-0.39;72.54
22104;BME280;11218;48.886;9.426;2022-12-18T13:10:35;99205.44;;;-0.42;72.99
22104;BME280;11218;48.886;9.426;2022-12-18T13:13:05;99209.06;;;-0.43;72.47
22104;BME280;11218;48.886;9.426;2022-12-18T13:16:03;99207.47;;;-0.53;72.32
22104;BME280;11218;48.886;9.426;2022-12-18T13:18:33;99196.06;;;-0.54;72.63
22104;BME280;11218;48.886;9.426;2022-12-18T13:21:05;99204.44;;;-0.58;73.05
22104;BME280;11218;48.886;9.426;2022-12-18T13:23:40;99204.59;;;-0.60;73.50